Terminal Aerodrome Forecast
Issued by NWS

Home | Current Version | Previous Version | Text Only | Print | Product List | Glossary On
Versions: 1 2 3 4 5 6 7 8 9 10 11 12 13 14 15 16 17 18 19 20 21 22 23 24 25 26
247
FTUS46 KEKA 180801 AAA
TAFUKI
TAF AMD
KUKI 180801Z 1808/1906 00000KT P6SM -RA OVC070
     FM181400 17010G18KT 6SM -RA BR SCT025 OVC050
     FM181600 15010G20KT 4SM RA BR SCT015 OVC025 WS020/18035KT
     FM190000 15008KT 6SM -RA BR SCT015 OVC025=

USA.gov is the U.S. government's official web portal to all federal, state and local government web resources and services.